Data for 01/11/2015

Time Sea-Level Adjusted Pressure Absolute Pressure Temperature Relative Humidity Dew Point   
(mb) (inHg) (mb) (inHg) (C) (F) (%) (C) (F)
00:05 1014 29.94 843 24.89 1.1 34.1 69 -3.9 25
00:10 1014 29.94 843 24.89 1.1 34 66 -4.6 23.7
00:15 1014 29.94 843 24.89 1.4 34.4 66 -4.4 24.2
00:20 1014 29.94 843 24.89 1.3 34.4 67 -4.2 24.4
00:25 1014 29.94 843 24.89 1.4 34.5 64 -4.8 23.4
00:30 1014 29.94 843 24.89 1.8 35.2 62 -4.7 23.5
00:35 1014 29.94 843 24.89 1.9 35.4 61 -4.9 23.2
00:40 1014 29.94 843 24.89 2.4 36.3 59 -4.8 23.4
00:45 1014 29.94 843 24.89 2.6 36.7 59 -4.5 23.9
00:50 1014 29.94 843 24.89 2.6 36.7 62 -4 24.9
00:55 1014 29.94 843 24.89 2.4 36.3 63 -3.9 25
01:00 1014 29.94 843 24.89 2.2 36 62 -4.3 24.3
01:05 1014 29.94 843 24.89 2.1 35.7 64 -4.1 24.6
01:10 1014 29.94 843 24.89 2.1 35.8 64 -3.9 25
01:15 1014 29.94 843 24.89 2.1 35.8 65 -3.7 25.4
01:20 1014 29.94 843 24.89 2.3 36.2 64 -3.7 25.3
01:25 1014 29.94 843 24.89 2.2 35.9 67 -3.3 26.1
01:30 1014 29.94 843 24.89 1.6 34.9 71 -3.1 26.4
01:35 1014 29.94 843 24.89 1 33.8 74 -3.2 26.3
01:40 1014 29.94 843 24.89 0.9 33.6 73 -3.5 25.8
01:45 1014 29.94 843 24.89 1.1 34 71 -3.6 25.4
01:50 1014 29.94 843 24.89 1.5 34.7 69 -3.5 25.7
01:55 1014 29.94 843 24.89 1.6 34.8 70 -3.3 26
02:00 1014 29.94 843 24.89 1.5 34.6 71 -3.3 26
02:05 1014 29.94 844 24.92 1.5 34.7 70 -3.4 25.9
02:10 1014 29.94 843 24.89 1.4 34.6 70 -3.4 25.9
02:15 1014 29.94 844 24.92 1.2 34.2 70 -3.6 25.6
02:20 1014 29.94 844 24.92 1.3 34.3 70 -3.6 25.4
02:25 1014 29.94 844 24.92 1.4 34.5 71 -3.3 26
02:30 1014 29.94 844 24.92 1.4 34.5 68 -3.9 25
02:35 1015 29.97 844 24.92 1.6 34.9 68 -3.6 25.4
02:40 1015 29.97 844 24.92 1.6 34.9 67 -4 24.9
02:45 1015 29.97 844 24.92 2.1 35.7 66 -3.7 25.4
02:50 1015 29.97 844 24.92 2.1 35.8 67 -3.3 26
02:55 1015 29.97 844 24.92 1.9 35.4 69 -3.3 26.1
03:00 1015 29.97 844 24.92 1.7 35 67 -3.8 25.1
03:05 1015 29.97 844 24.92 1.8 35.2 67 -3.7 25.3
03:10 1015 29.97 844 24.92 1.8 35.2 68 -3.5 25.8
03:15 1015 29.97 844 24.92 1.4 34.6 71 -3.2 26.2
03:20 1015 29.97 844 24.92 1.4 34.5 72 -3.2 26.3
03:25 1015 29.97 844 24.92 1.5 34.7 69 -3.6 25.5
03:30 1015 29.97 844 24.92 2 35.5 69 -3.1 26.4
03:35 1015 29.97 844 24.92 2 35.6 67 -3.5 25.8
03:40 1015 29.97 844 24.92 2.1 35.8 66 -3.6 25.6
03:45 1015 29.97 845 24.95 2.1 35.8 67 -3.4 25.9
03:50 1015 29.97 845 24.95 2 35.6 68 -3.3 26.1
03:55 1015 29.97 845 24.95 1.8 35.2 72 -2.7 27.2
04:00 1015 29.97 845 24.95 1.6 34.9 74 -2.6 27.2
04:05 1015 29.97 845 24.95 1.5 34.8 75 -2.5 27.5
04:10 1016 30 845 24.95 1.7 35.1 74 -2.3 27.8
04:15 1016 30 845 24.95 1.8 35.3 75 -2.1 28.2
04:20 1016 30 845 24.95 1.9 35.4 75 -2.1 28.2
04:25 1016 30 845 24.95 1.9 35.4 75 -2 28.3
04:30 1016 30 845 24.95 1.7 35.1 77 -1.9 28.5
04:35 1016 30 845 24.95 1.6 34.9 79 -1.6 29.1
04:40 1016 30 845 24.95 1.8 35.2 79 -1.5 29.3
04:45 1016 30 845 24.95 1.8 35.2 79 -1.5 29.3
04:50 1016 30 845 24.95 1.6 34.8 81 -1.4 29.5
04:55 1016 30 845 24.95 1.3 34.3 84 -1.2 29.8
05:00 1016 30 845 24.95 1.1 34 86 -1 30.2
05:05 1016 30 845 24.95 1 33.8 87 -0.9 30.4
05:10 1016 30 845 24.95 0.8 33.5 89 -0.8 30.6
05:15 1016 30 845 24.95 0.6 33.1 90 -0.8 30.6
05:20 1016 30 845 24.95 0.4 32.8 92 -0.8 30.6
05:25 1016 30 845 24.95 0.3 32.6 93 -0.7 30.7
05:30 1016 30 845 24.95 0.3 32.5 93 -0.7 30.8
05:35 1016 30 845 24.95 0.3 32.5 94 -0.7 30.8
05:40 1016 30 845 24.95 0.2 32.4 94 -0.6 30.9
05:45 1016 30 845 24.95 0.2 32.4 94 -0.6 30.8
05:50 1016 30 845 24.95 0.2 32.4 94 -0.6 30.9
05:55 1016 30 845 24.95 0.2 32.3 94 -0.6 30.8
06:00 1016 30 845 24.95 0.2 32.3 95 -0.6 30.9
06:05 1016 30 845 24.95 0.2 32.3 95 -0.6 30.9
06:10 1016 30 845 24.95 0.2 32.3 95 -0.6 30.9
06:15 1016 30 845 24.95 0.1 32.2 95 -0.6 30.8
06:20 1016 30 845 24.95 0 32.1 95 -0.7 30.8
06:25 1016 30 845 24.95 -0 32 95 -0.7 30.7
06:30 1016 30 845 24.95 -0 32 95 -0.7 30.7
06:35 1016 30 845 24.95 0 32 95 -0.7 30.8
06:40 1016 30 845 24.95 0 32.1 95 -0.6 30.9
06:45 1016 30 845 24.95 0.1 32.2 95 -0.6 31
06:50 1016 30 845 24.95 0.1 32.2 95 -0.6 31
06:55 1016 30 845 24.95 0.1 32.1 95 -0.6 30.9
07:00 1015 29.97 845 24.95 0.1 32.1 95 -0.6 30.9
07:05 1015 29.97 845 24.95 0.1 32.1 96 -0.6 31
07:10 1016 30 845 24.95 0 32.1 95 -0.6 30.9
07:15 1016 30 845 24.95 0.1 32.1 96 -0.6 31
07:20 1016 30 845 24.95 0.1 32.1 96 -0.6 31
07:25 1016 30 845 24.95 0.1 32.2 96 -0.5 31.1
07:30 1016 30 845 24.95 0.2 32.3 96 -0.5 31.2
07:35 1016 30 845 24.95 0.3 32.5 96 -0.3 31.4
07:40 1016 30 845 24.95 0.4 32.7 96 -0.3 31.5
07:45 1016 30 845 24.95 0.6 33.1 95 -0.1 31.9
07:50 1016 30 845 24.95 0.7 33.2 95 0 32
07:55 1016 30 845 24.95 0.6 33.1 95 -0.2 31.7
08:00 1016 30 845 24.95 0.5 32.9 95 -0.3 31.5
08:05 1016 30 845 24.95 0.5 32.8 94 -0.3 31.4
08:10 1016 30 846 24.98 0.4 32.8 94 -0.4 31.4
08:15 1016 30 846 24.98 0.4 32.7 95 -0.4 31.4
08:20 1016 30 846 24.98 0.4 32.8 94 -0.4 31.4
08:25 1017 30.03 846 24.98 0.4 32.7 94 -0.4 31.3
08:30 1017 30.03 846 24.98 0.3 32.6 94 -0.5 31.2
08:35 1017 30.03 846 24.98 0.3 32.6 94 -0.5 31.1
08:40 1017 30.03 846 24.98 0.3 32.6 95 -0.4 31.2
08:45 1017 30.03 846 24.98 0.4 32.7 94 -0.4 31.3
08:50 1017 30.03 846 24.98 0.4 32.7 94 -0.4 31.3
08:55 1017 30.03 846 24.98 0.4 32.7 94 -0.5 31.2
09:00 1017 30.03 846 24.98 0.4 32.6 94 -0.5 31.1
09:05 1017 30.03 846 24.98 0.4 32.7 94 -0.4 31.3
09:10 1017 30.03 846 24.98 0.4 32.8 94 -0.4 31.3
09:15 1017 30.03 846 24.98 0.4 32.7 94 -0.5 31.1
09:20 1017 30.03 846 24.98 0.3 32.6 94 -0.5 31.1
09:25 1017 30.03 846 24.98 0.3 32.5 94 -0.5 31.1
09:30 1017 30.03 847 25.01 0.3 32.5 94 -0.5 31
09:35 1017 30.03 847 25.01 0.2 32.4 94 -0.6 31
09:40 1017 30.03 847 25.01 0.2 32.4 94 -0.6 31
09:45 1018 30.06 847 25.01 0.2 32.4 94 -0.6 30.9
09:50 1018 30.06 847 25.01 0.2 32.4 94 -0.6 31
09:55 1018 30.06 847 25.01 0.3 32.5 94 -0.5 31
10:00 1018 30.06 847 25.01 0.2 32.4 94 -0.7 30.8
10:05 1018 30.06 847 25.01 0.1 32.2 94 -0.8 30.6
10:10 1018 30.06 847 25.01 -0 32 94 -0.8 30.5
10:15 1018 30.06 847 25.01 -0.1 31.9 94 -0.9 30.4
10:20 1018 30.06 848 25.04 -0.6 30.9 92 -1.7 28.9
10:25 1018 30.06 848 25.04 -1 30.1 92 -2.2 28
10:30 1018 30.06 848 25.04 -1.2 29.8 91 -2.5 27.6
10:35 1019 30.09 848 25.04 -1.4 29.5 92 -2.5 27.4
10:40 1019 30.09 848 25.04 -1.5 29.4 91 -2.7 27.2
10:45 1019 30.09 848 25.04 -1.6 29.1 91 -2.9 26.8
10:50 1019 30.09 848 25.04 -1.7 28.9 91 -3 26.6
10:55 1019 30.09 848 25.04 -1.8 28.7 91 -3.2 26.3
11:00 1019 30.09 848 25.04 -1.9 28.5 90 -3.3 26
11:05 1019 30.09 848 25.04 -2 28.4 89 -3.5 25.6
11:10 1019 30.09 848 25.04 -2 28.3 89 -3.7 25.4
11:15 1019 30.09 848 25.04 -2 28.4 87 -3.8 25.1
11:20 1019 30.09 848 25.04 -1.9 28.6 87 -3.8 25.2
11:25 1019 30.09 848 25.04 -1.9 28.5 86 -4 24.8
11:30 1019 30.09 848 25.04 -2 28.3 87 -4 24.9
11:35 1019 30.09 849 25.07 -2.1 28.3 87 -4 24.8
11:40 1019 30.09 849 25.07 -2.2 28.1 87 -4 24.8
11:45 1019 30.09 849 25.07 -2.3 27.9 88 -4 24.7
11:50 1019 30.09 849 25.07 -2.3 27.8 88 -4 24.7
11:55 1019 30.09 849 25.07 -2.4 27.6 90 -3.9 24.9
12:00 1019 30.09 849 25.07 -2.5 27.5 89 -4 24.8
12:05 1019 30.09 849 25.07 -2.6 27.4 90 -4 24.8
12:10 1019 30.09 849 25.07 -2.5 27.4 90 -4 24.9
12:15 1019 30.09 849 25.07 -2.4 27.6 89 -3.9 24.9
12:20 1019 30.09 849 25.07 -2.5 27.5 89 -4.1 24.6
12:25 1019 30.09 849 25.07 -2.6 27.3 87 -4.5 24
12:30 1019 30.09 849 25.07 -2.5 27.5 85 -4.7 23.5
12:35 1019 30.09 849 25.07 -2.4 27.8 84 -4.8 23.4
12:40 1019 30.09 849 25.07 -2.1 28.2 81 -4.9 23.1
12:45 1019 30.09 849 25.07 -2.1 28.2 81 -4.8 23.3
12:50 1019 30.09 849 25.07 -2.1 28.3 82 -4.7 23.5
12:55 1019 30.09 849 25.07 -2.2 28.1 82 -4.8 23.4
13:00 1019 30.09 849 25.07 -2.3 27.9 82 -4.9 23.3
13:05 1019 30.09 849 25.07 -2.3 27.9 82 -4.9 23.1
13:10 1019 30.09 849 25.07 -2.4 27.8 83 -4.9 23.2
13:15 1019 30.09 849 25.07 -2.4 27.6 85 -4.7 23.6
13:20 1020 30.12 849 25.07 -2.4 27.8 84 -4.8 23.4
13:25 1020 30.12 849 25.07 -2.4 27.7 84 -4.8 23.4
13:30 1020 30.12 849 25.07 -2.4 27.7 85 -4.7 23.6
13:35 1020 30.12 849 25.07 -2.3 27.8 84 -4.7 23.6
13:40 1020 30.12 849 25.07 -2.4 27.7 86 -4.5 24
13:45 1019 30.09 849 25.07 -2.4 27.6 86 -4.4 24
13:50 1019 30.09 849 25.07 -2.5 27.6 86 -4.5 23.9
13:55 1019 30.09 849 25.07 -2.5 27.5 86 -4.5 23.9
14:00 1019 30.09 849 25.07 -2.5 27.4 85 -4.6 23.6
14:05 1019 30.09 849 25.07 -2.5 27.6 85 -4.6 23.7
14:10 1019 30.09 849 25.07 -2.3 27.8 84 -4.6 23.7
14:15 1019 30.09 849 25.07 -2.4 27.7 85 -4.5 23.8
14:20 1019 30.09 849 25.07 -2.3 27.8 85 -4.5 23.9
14:25 1019 30.09 849 25.07 -2.1 28.2 85 -4.4 24.2
14:30 1019 30.09 849 25.07 -1.9 28.6 83 -4.4 24.2
14:35 1019 30.09 849 25.07 -1.9 28.5 84 -4.3 24.2
14:40 1019 30.09 849 25.07 -1.9 28.6 84 -4.2 24.4
14:45 1020 30.12 849 25.07 -1.8 28.7 85 -4 24.9
14:50 1020 30.12 849 25.07 -1.8 28.8 85 -4.1 24.7
14:55 1020 30.12 849 25.07 -1.8 28.7 85 -4 24.7
15:00 1020 30.12 849 25.07 -1.8 28.8 84 -4.1 24.7
15:05 1020 30.12 849 25.07 -1.8 28.8 84 -4.2 24.5
15:10 1020 30.12 849 25.07 -1.7 29 84 -4.1 24.7
15:15 1020 30.12 849 25.07 -1.6 29.2 88 -3.4 26
15:20 1020 30.12 849 25.07 -1.8 28.7 90 -3.3 26.1
15:25 1020 30.12 849 25.07 -2.1 28.2 92 -3.3 26.1
15:30 1020 30.12 849 25.07 -2.2 28.1 92 -3.3 26
15:35 1020 30.12 849 25.07 -2.3 27.9 92 -3.3 26
15:40 1020 30.12 849 25.07 -2.2 28 92 -3.3 26.1
15:45 1020 30.12 849 25.07 -2.1 28.2 92 -3.3 26.1
15:50 1020 30.12 849 25.07 -2.2 28.1 92 -3.3 26
15:55 1020 30.12 849 25.07 -2.3 27.9 92 -3.4 25.9
16:00 1020 30.12 849 25.07 -2.1 28.2 91 -3.4 25.9
16:05 1020 30.12 849 25.07 -2.2 28 92 -3.4 25.9
16:10 1020 30.12 849 25.07 -2.3 27.8 92 -3.4 25.9
16:15 1020 30.12 849 25.07 -2.3 27.8 92 -3.5 25.8
16:20 1020 30.12 849 25.07 -2.4 27.8 92 -3.5 25.7
16:25 1020 30.12 850 25.1 -2.5 27.5 86 -4.5 23.9
16:30 1020 30.12 850 25.1 -2.5 27.5 83 -5 23
16:35 1020 30.12 850 25.1 -2.7 27.2 82 -5.4 22.3
16:40 1020 30.12 850 25.1 -2.8 27 82 -5.4 22.3
16:45 1020 30.12 850 25.1 -2.8 26.9 82 -5.5 22.2
16:50 1021 30.15 850 25.1 -2.9 26.7 82 -5.6 22
16:55 1021 30.15 850 25.1 -2.9 26.7 80 -5.9 21.3
17:00 1021 30.15 850 25.1 -3.1 26.4 81 -6 21.2
17:05 1021 30.15 850 25.1 -3.2 26.2 80 -6.2 20.8
17:10 1021 30.15 850 25.1 -3.2 26.2 80 -6.2 20.8
17:15 1021 30.15 850 25.1 -3.2 26.3 78 -6.4 20.4
17:20 1021 30.15 850 25.1 -3.3 26.1 80 -6.3 20.6
17:25 1021 30.15 850 25.1 -3.3 26 79 -6.4 20.4
17:30 1021 30.15 850 25.1 -3.4 25.8 79 -6.6 20.1
17:35 1021 30.15 850 25.1 -3.6 25.6 79 -6.8 19.8
17:40 1021 30.15 850 25.1 -3.7 25.3 79 -6.9 19.6
17:45 1021 30.15 850 25.1 -3.8 25.1 80 -6.9 19.7
17:50 1021 30.15 850 25.1 -3.9 25 80 -6.9 19.5
17:55 1021 30.15 850 25.1 -3.9 25 79 -7 19.5
18:00 1021 30.15 850 25.1 -3.9 25 80 -6.9 19.6
18:05 1021 30.15 850 25.1 -3.9 25.1 81 -6.7 20
18:10 1021 30.15 850 25.1 -3.8 25.2 80 -6.7 20
18:15 1021 30.15 850 25.1 -3.8 25.2 82 -6.5 20.4
18:20 1021 30.15 850 25.1 -3.7 25.4 81 -6.5 20.3
18:25 1021 30.15 850 25.1 -3.7 25.4 82 -6.4 20.5
18:30 1021 30.15 850 25.1 -3.7 25.4 82 -6.3 20.6
18:35 1021 30.15 850 25.1 -3.6 25.4 82 -6.3 20.7
18:40 1021 30.15 850 25.1 -3.6 25.5 80 -6.5 20.3
18:45 1021 30.15 850 25.1 -3.6 25.6 78 -6.8 19.7
18:50 1021 30.15 850 25.1 -3.7 25.3 79 -6.9 19.7
18:55 1021 30.15 850 25.1 -3.8 25.1 80 -6.7 19.9
19:00 1021 30.15 851 25.13 -3.9 24.9 80 -6.8 19.7
19:05 1021 30.15 851 25.13 -4 24.8 80 -7 19.5
19:10 1021 30.15 851 25.13 -4.1 24.6 81 -6.9 19.6
19:15 1022 30.18 851 25.13 -4.2 24.5 80 -7.1 19.2
19:20 1022 30.18 851 25.13 -4.2 24.5 81 -6.9 19.5
19:25 1022 30.18 851 25.13 -4.2 24.4 80 -7.1 19.2
19:30 1022 30.18 851 25.13 -4.3 24.3 80 -7.2 19.1
19:35 1022 30.18 851 25.13 -4.3 24.3 81 -7.1 19.2
19:40 1022 30.18 851 25.13 -4.3 24.2 81 -7.1 19.2
19:45 1022 30.18 851 25.13 -4.4 24.1 81 -7.1 19.2
19:50 1022 30.18 851 25.13 -4.4 24.2 82 -7.1 19.3
19:55 1022 30.18 851 25.13 -4.4 24.2 82 -7 19.4
20:00 1022 30.18 851 25.13 -4.3 24.2 83 -6.8 19.8
20:05 1022 30.18 851 25.13 -4.3 24.3 83 -6.7 20
20:10 1022 30.18 851 25.13 -4.2 24.5 82 -6.8 19.7
20:15 1022 30.18 851 25.13 -4.2 24.5 83 -6.6 20
20:20 1022 30.18 851 25.13 -4.2 24.4 84 -6.6 20.1
20:25 1022 30.18 851 25.13 -4.3 24.3 82 -6.9 19.5
20:30 1022 30.18 851 25.13 -4.3 24.2 82 -7 19.4
20:35 1022 30.18 851 25.13 -4.3 24.2 81 -7.1 19.3
20:40 1022 30.18 851 25.13 -4.4 24.1 83 -6.9 19.5
20:45 1022 30.18 851 25.13 -4.4 24.1 83 -6.9 19.5
20:50 1022 30.18 851 25.13 -4.4 24 82 -7.1 19.3
20:55 1022 30.18 851 25.13 -4.6 23.8 82 -7.2 19
21:00 1022 30.18 851 25.13 -4.6 23.6 81 -7.4 18.8
21:05 1022 30.18 851 25.13 -4.6 23.6 81 -7.5 18.5
21:10 1022 30.18 851 25.13 -4.6 23.8 81 -7.4 18.7
21:15 1022 30.18 851 25.13 -4.4 24 81 -7.3 18.9
21:20 1022 30.18 851 25.13 -4.4 24.1 81 -7.1 19.2
21:25 1022 30.18 851 25.13 -4.3 24.2 80 -7.3 18.8
21:30 1022 30.18 851 25.13 -4.3 24.3 80 -7.1 19.1
21:35 1022 30.18 851 25.13 -4.3 24.3 82 -6.9 19.5
21:40 1022 30.18 851 25.13 -4.3 24.2 82 -6.9 19.6
21:45 1022 30.18 851 25.13 -4.4 24.1 84 -6.7 20
21:50 1022 30.18 851 25.13 -4.4 24.1 84 -6.7 20
21:55 1022 30.18 852 25.16 -4.4 24 85 -6.7 20
22:00 1022 30.18 852 25.16 -4.4 24 84 -6.7 19.9
22:05 1022 30.18 852 25.16 -4.4 24.1 83 -6.9 19.6
22:10 1022 30.18 852 25.16 -4.3 24.3 83 -6.8 19.8
22:15 1022 30.18 852 25.16 -4.3 24.3 83 -6.7 19.9
22:20 1022 30.18 852 25.16 -4.3 24.2 81 -7.2 19.1
22:25 1023 30.21 852 25.16 -4.4 24 80 -7.3 18.8
22:30 1023 30.21 852 25.16 -4.6 23.8 80 -7.6 18.4
22:35 1023 30.21 852 25.16 -4.8 23.4 79 -7.8 17.9
22:40 1023 30.21 852 25.16 -5 23.1 80 -7.9 17.8
22:45 1023 30.21 852 25.16 -5.1 22.9 80 -8 17.7
22:50 1023 30.21 852 25.16 -5.2 22.6 81 -8 17.5
22:55 1023 30.21 852 25.16 -5.3 22.4 81 -8.1 17.4
23:00 1023 30.21 852 25.16 -5.4 22.4 81 -8.1 17.4
23:05 1023 30.21 852 25.16 -5.4 22.3 80 -8.3 17.1
23:10 1023 30.21 852 25.16 -5.5 22.1 81 -8.3 17.1
23:15 1023 30.21 852 25.16 -5.5 22.2 81 -8.2 17.2
23:20 1023 30.21 852 25.16 -5.4 22.3 81 -8.2 17.2
23:25 1023 30.21 852 25.16 -5.3 22.4 81 -8 17.5
23:30 1023 30.21 852 25.16 -5.3 22.5 80 -8.2 17.2
23:35 1023 30.21 852 25.16 -5.2 22.6 80 -8.2 17.3
23:40 1023 30.21 852 25.16 -5.3 22.4 79 -8.4 17
23:45 1023 30.21 852 25.16 -5.5 22.2 80 -8.4 16.9
23:50 1023 30.21 852 25.16 -5.6 21.9 81 -8.4 17
23:55 1023 30.21 852 25.16 -5.7 21.8 81 -8.5 16.7
24:00 1023 30.21 852 25.16 -5.7 21.7 81 -8.5 16.7